Tropical Cyclones
[Index]
Main Index Home Page Stock Weather Photos Extreme Storms Discussion Storm News and Storm Chasing Reports Tropical Cyclones / Hurricanes / Typhoons Weather Data and Links Wild Fires / Bushfires Weather Observation Techniques Weather Picture Catalogue Tornado Pictures and Reports Stock Video Footage and DVDs for sale
Season 1978-1979 Tropical Cyclone HAZEL Track Map
Season 1978-1979 Summaries: [BoM-AU] [JTWC-AU] [JTWC-SIO] [JTWC-SPAC] [JTWC-SH]
<<- Previous TC | BoM 1978-1979 Season | Next TC ->>

click for intensity scale information  Lat/long Grid: Show Hide

 Date Labels: Show Hide

Bureau of Meteorology Tropical Cyclone Data

Name: HAZEL
Number: 589 / 197879_06

07 Mar 1979 00:00 UTC to 14 Mar 1979 06:00 UTC

    date/time    lat    long    hPa   cat  kts
1979-03-07 00   15.2   123.9    999                     
1979-03-07 06   15.1   123.0    999                     
1979-03-07 12   14.7   122.3    998                     
1979-03-07 18   14.3   122.0    998                     
1979-03-08 00   13.8   121.7    998                     
1979-03-08 06   13.5   121.2    997                     
1979-03-08 12   13.5   120.6    995    1                
1979-03-08 18   13.9   120.1    994    1                
1979-03-09 00   14.5   119.8    992    1                
1979-03-09 06   15.0   119.8    990    1                
1979-03-09 12   15.5   119.5    988    1                
1979-03-09 18   16.0   119.2    986    1                
1979-03-10 00   16.2   118.5    983    2                
1979-03-10 06   16.8   117.8    980    2                
1979-03-10 12   17.3   117.2    977    2                
1979-03-10 18   17.7   116.4    974    2                
1979-03-11 00   18.0   115.7    971    2                
1979-03-11 06   18.2   115.2    968    3                
1979-03-11 12   18.4   114.6    965    3                
1979-03-11 18   18.7   113.8    963    3                
1979-03-12 00   19.0   113.1    960    3                
1979-03-12 06   19.6   112.6    958    3                
1979-03-12 12   20.3   112.2    955    4                
1979-03-12 18   21.0   112.0    952    4                
1979-03-13 00   22.1   112.2    950    4                
1979-03-13 03   22.7   112.3    947    4                
1979-03-13 06   23.4   112.5    945    4                
1979-03-13 09   24.2   112.8    942    4                
1979-03-13 12   25.1   113.0    939    4                
1979-03-13 15   26.1   113.6    936    4                
1979-03-13 18   27.2   114.2    938    4                
1979-03-13 21   28.4   114.5    950    4                
1979-03-14 00   29.6   115.4    985    2                
1979-03-14 01   30.0   116.0                            
1979-03-14 03   30.9   116.2    992    1                
1979-03-14 06   32.4   117.7   1002                     
Winds are 10-min average.

Tropical cyclone tracks developed by Michael Bath using data from the Bureau of Meteorology and Google Maps.


[Australian Severe Weather index] [Copyright Notice] [Email Contacts] [Search This Site] [Privacy Policy]
Document: tropical_cyclone_hazel.htm Updated: 30 May 2013